Weather at Little Parker Island Heliport

Public forecast

Using degrees Celsius for public forecast. Weather courtesy of forecast.io.

Closest aviation weather report (METAR) to Little Parker Island Heliport

Closest report is Victoria International Airport, 15.0 nm (27.7 km) S.

2024/05/30 09:00 (retrieved 57 minutes ago)

CYYJ 300900Z 29009KT 20SM SCT047 SCT075 BKN170 10/05 A3036 WS RWY47 RMK SC3AC1AC1 S SLP284

Closest aviation forecast (TAF) to Little Parker Island Heliport

Closest forecast is Victoria International Airport, 15.0 nm (27.7 km) S.

2024/05/30 06:42 (retrieved 3 hours ago)

TAF CYYJ 300540Z 3006/3106 25008KT P6SM FEW080 SCT200 FM301100 27006KT P6SM BKN030 BECMG 3018/3020 12008KT FEW030 RMK NXT FCST BY 301200Z